createdAt,value
2023-02-23T00:00:55.336Z,8.20
2023-02-23T00:03:28.087Z,8.14
2023-02-23T00:06:03.658Z,8.17
2023-02-23T00:08:37.175Z,8.15
2023-02-23T00:11:12.815Z,8.14
2023-02-23T00:13:47.339Z,8.15
2023-02-23T00:16:21.641Z,8.16
2023-02-23T00:18:55.343Z,8.16
2023-02-23T00:21:29.968Z,8.13
2023-02-23T00:24:04.714Z,8.15
2023-02-23T00:26:38.074Z,8.15
2023-02-23T00:29:13.749Z,8.11
2023-02-23T00:31:46.956Z,8.07
2023-02-23T00:34:21.571Z,8.06
2023-02-23T00:36:55.688Z,8.06
2023-02-23T00:39:29.585Z,8.06
2023-02-23T00:42:03.757Z,8.04
2023-02-23T00:44:40.660Z,8.03
2023-02-23T00:47:13.100Z,8.03
2023-02-23T00:49:46.217Z,8.00
2023-02-23T00:52:19.315Z,7.99
2023-02-23T00:54:51.663Z,8.00
2023-02-23T00:57:24.465Z,8.00
2023-02-23T00:59:56.891Z,7.99
2023-02-23T01:02:31.329Z,7.99
2023-02-23T01:05:04.175Z,7.96
2023-02-23T01:07:36.430Z,7.94
2023-02-23T01:10:19.601Z,7.91
2023-02-23T01:12:53.878Z,7.87
2023-02-23T01:15:27.817Z,7.86
2023-02-23T01:18:00.293Z,7.86
2023-02-23T01:20:32.925Z,7.82
2023-02-23T01:23:07.644Z,7.78
2023-02-23T01:25:40.412Z,7.76
2023-02-23T01:28:13.745Z,7.74
2023-02-23T01:30:46.342Z,7.71
2023-02-23T01:33:18.974Z,7.69
2023-02-23T01:36:00.229Z,7.70
2023-02-23T01:38:32.971Z,7.66
2023-02-23T01:41:07.168Z,7.62
2023-02-23T01:43:52.978Z,7.56
2023-02-23T01:46:25.389Z,7.53
2023-02-23T01:48:58.804Z,7.50
2023-02-23T01:51:34.316Z,7.48
2023-02-23T01:54:14.505Z,7.48
2023-02-23T01:56:51.237Z,7.48
2023-02-23T01:59:23.863Z,7.47
2023-02-23T02:01:57.389Z,7.46
2023-02-23T02:04:33.829Z,7.43
2023-02-23T02:07:07.839Z,7.44
2023-02-23T02:09:40.930Z,7.42
2023-02-23T02:12:15.693Z,7.39
2023-02-23T02:14:49.071Z,7.36
2023-02-23T02:17:33.914Z,7.33
2023-02-23T02:20:43.023Z,7.32
2023-02-23T02:23:48.532Z,7.31
2023-02-23T02:26:29.583Z,7.33
2023-02-23T02:29:28.873Z,7.34
2023-02-23T02:32:22.992Z,7.37
2023-02-23T02:35:25.810Z,7.37
2023-02-23T02:38:06.777Z,7.36
2023-02-23T02:40:53.584Z,7.37
2023-02-23T02:43:40.809Z,7.37
2023-02-23T02:46:18.750Z,7.36
2023-02-23T02:48:59.526Z,7.36
2023-02-23T02:51:39.684Z,7.34
2023-02-23T02:54:22.206Z,7.33
2023-02-23T02:57:00.507Z,7.32
2023-02-23T02:59:50.650Z,7.27
2023-02-23T03:02:43.282Z,7.25
2023-02-23T03:05:35.464Z,7.23
2023-02-23T03:08:34.808Z,7.17
2023-02-23T03:11:27.587Z,7.17
2023-02-23T03:14:29.962Z,7.12
2023-02-23T03:17:27.832Z,7.08
2023-02-23T03:20:24.778Z,7.05
2023-02-23T03:23:24.591Z,7.05
2023-02-23T03:26:20.781Z,7.04
2023-02-23T03:29:19.416Z,7.03
2023-02-23T03:32:17.730Z,7.01
2023-02-23T03:35:12.894Z,6.99
2023-02-23T03:38:12.778Z,6.96
2023-02-23T03:41:05.365Z,6.94
2023-02-23T03:44:01.384Z,6.94
2023-02-23T03:46:52.743Z,6.92
2023-02-23T03:49:46.420Z,6.90
2023-02-23T03:52:40.547Z,6.90
2023-02-23T03:55:34.797Z,6.90
2023-02-23T03:58:27.979Z,6.89
2023-02-23T04:01:21.720Z,6.88
2023-02-23T04:04:15.533Z,6.83
2023-02-23T04:07:08.302Z,6.83
2023-02-23T04:09:57.884Z,6.83
2023-02-23T04:12:53.224Z,6.81
2023-02-23T04:15:30.420Z,6.76
2023-02-23T04:18:04.756Z,6.74
2023-02-23T04:20:37.328Z,6.72
2023-02-23T04:23:09.643Z,6.70
2023-02-23T04:25:42.168Z,6.70
2023-02-23T04:28:14.543Z,6.70
2023-02-23T04:30:46.968Z,6.70
2023-02-23T04:33:19.437Z,6.67
2023-02-23T04:35:53.293Z,6.64
2023-02-23T04:38:25.983Z,6.62
2023-02-23T04:40:58.374Z,6.61
2023-02-23T04:43:30.688Z,6.62
2023-02-23T04:46:03.103Z,6.64
2023-02-23T04:48:35.455Z,6.64
2023-02-23T04:51:08.161Z,6.63
2023-02-23T04:53:41.110Z,6.63
2023-02-23T04:56:13.808Z,6.63
2023-02-23T04:58:46.388Z,6.62
2023-02-23T05:01:19.312Z,6.61
2023-02-23T05:03:52.102Z,6.60
2023-02-23T05:06:24.760Z,6.59
2023-02-23T05:08:57.049Z,6.59
2023-02-23T05:11:29.358Z,6.59
2023-02-23T05:14:01.745Z,6.58
2023-02-23T05:16:34.358Z,6.58
2023-02-23T05:19:06.784Z,6.57
2023-02-23T05:21:41.453Z,6.56
2023-02-23T05:24:13.759Z,6.53
2023-02-23T05:26:46.488Z,6.52
2023-02-23T05:29:19.361Z,6.53
2023-02-23T05:31:51.671Z,6.53
2023-02-23T05:34:24.343Z,6.52
2023-02-23T05:36:56.704Z,6.51
2023-02-23T05:39:29.060Z,6.51
2023-02-23T05:42:01.435Z,6.51
2023-02-23T05:44:33.773Z,6.53
2023-02-23T05:47:06.082Z,6.50
2023-02-23T05:49:38.679Z,6.48
2023-02-23T05:52:11.168Z,6.44
2023-02-23T05:54:43.480Z,6.41
2023-02-23T05:57:16.179Z,6.38
2023-02-23T05:59:48.573Z,6.35
2023-02-23T06:02:21.010Z,6.35
2023-02-23T06:04:53.467Z,6.34
2023-02-23T06:07:25.880Z,6.33
2023-02-23T06:09:58.128Z,6.33
2023-02-23T06:12:30.491Z,6.32
2023-02-23T06:15:02.876Z,6.33
2023-02-23T06:17:35.315Z,6.33
2023-02-23T06:20:09.119Z,6.32
2023-02-23T06:22:42.504Z,6.32
2023-02-23T06:25:14.847Z,6.33
2023-02-23T06:27:47.095Z,6.35
2023-02-23T06:30:20.162Z,6.38
2023-02-23T06:32:52.788Z,6.42
2023-02-23T06:35:27.428Z,6.46
2023-02-23T06:37:59.876Z,6.51
2023-02-23T06:40:32.223Z,6.58
2023-02-23T06:43:05.347Z,6.62
2023-02-23T06:45:37.804Z,6.66
2023-02-23T06:48:10.695Z,6.71
2023-02-23T06:50:43.731Z,6.75
2023-02-23T06:53:16.172Z,6.79
2023-02-23T06:55:48.536Z,6.81
2023-02-23T06:58:21.018Z,6.82
2023-02-23T07:00:54.418Z,6.84
2023-02-23T07:03:27.088Z,6.85
2023-02-23T07:05:59.349Z,6.91
2023-02-23T07:08:31.665Z,6.99
2023-02-23T07:11:10.437Z,7.04
2023-02-23T07:13:43.746Z,7.16
2023-02-23T07:16:16.464Z,7.37
2023-02-23T07:18:48.872Z,7.54
2023-02-23T07:21:21.531Z,7.69
2023-02-23T07:23:53.812Z,7.81
2023-02-23T07:26:26.063Z,7.92
2023-02-23T07:28:58.480Z,8.06
2023-02-23T07:31:30.896Z,8.20
2023-02-23T07:34:03.387Z,8.28
2023-02-23T07:36:36.442Z,8.38
2023-02-23T07:39:09.100Z,8.50
2023-02-23T07:41:41.654Z,8.59
2023-02-23T07:44:14.106Z,8.63
2023-02-23T07:46:47.040Z,8.66
2023-02-23T07:49:19.358Z,8.71
2023-02-23T07:51:51.691Z,8.69
2023-02-23T07:54:25.643Z,8.69
2023-02-23T07:56:57.927Z,8.67
2023-02-23T07:59:30.559Z,8.67
2023-02-23T08:02:02.842Z,8.65
2023-02-23T08:04:35.342Z,8.56
2023-02-23T08:07:08.815Z,8.48
2023-02-23T08:09:41.206Z,8.38
2023-02-23T08:12:15.673Z,8.33
2023-02-23T08:14:48.124Z,8.28
2023-02-23T08:17:20.507Z,8.23
2023-02-23T08:19:52.845Z,8.20
2023-02-23T08:22:25.092Z,8.20
2023-02-23T08:24:57.500Z,8.20
2023-02-23T08:27:29.975Z,8.19
2023-02-23T08:30:04.178Z,8.20
2023-02-23T08:32:37.645Z,8.23
2023-02-23T08:35:11.261Z,8.25
2023-02-23T08:37:43.855Z,8.30
2023-02-23T08:40:18.420Z,8.32
2023-02-23T08:42:52.150Z,8.47
2023-02-23T08:45:24.471Z,8.65
2023-02-23T08:47:57.429Z,8.86
2023-02-23T08:50:29.783Z,9.04
2023-02-23T08:53:01.992Z,9.14
2023-02-23T08:55:35.652Z,9.29
2023-02-23T08:58:09.548Z,9.48
2023-02-23T09:00:41.876Z,9.56
2023-02-23T09:03:14.271Z,9.53
2023-02-23T09:05:47.219Z,9.47
2023-02-23T09:08:19.554Z,9.55
2023-02-23T09:10:51.833Z,9.53
2023-02-23T09:13:24.146Z,9.38
2023-02-23T09:15:56.650Z,9.26
2023-02-23T09:18:29.636Z,9.07
2023-02-23T09:21:07.139Z,9.04
2023-02-23T09:23:39.788Z,9.08
2023-02-23T09:26:12.185Z,9.10
2023-02-23T09:28:44.451Z,8.98
2023-02-23T09:31:19.641Z,8.94
2023-02-23T09:33:52.969Z,8.96
2023-02-23T09:36:27.296Z,8.89
2023-02-23T09:38:59.791Z,8.88
2023-02-23T09:41:59.074Z,8.93
2023-02-23T09:44:43.611Z,8.98
2023-02-23T09:47:30.835Z,9.02
2023-02-23T09:50:11.716Z,9.03
2023-02-23T09:52:49.909Z,9.05
2023-02-23T09:55:22.993Z,9.09
2023-02-23T09:57:58.364Z,9.12
2023-02-23T10:00:31.789Z,9.04
2023-02-23T10:03:20.026Z,9.02
2023-02-23T10:05:57.742Z,9.04
2023-02-23T10:08:43.957Z,9.08
2023-02-23T10:11:26.078Z,9.12
2023-02-23T10:14:12.636Z,9.09
2023-02-23T10:17:01.558Z,9.16
2023-02-23T10:19:44.718Z,9.12
2023-02-23T10:22:19.367Z,9.10
2023-02-23T10:24:57.122Z,9.08
2023-02-23T10:27:37.695Z,9.07
2023-02-23T10:30:22.517Z,9.04
2023-02-23T10:33:00.944Z,9.15
2023-02-23T10:35:33.881Z,9.23
2023-02-23T10:38:06.509Z,9.25
2023-02-23T10:40:38.968Z,9.28
2023-02-23T10:43:14.761Z,9.24
2023-02-23T10:45:48.031Z,9.17
2023-02-23T10:48:24.548Z,9.01
2023-02-23T10:51:03.160Z,8.88
2023-02-23T10:53:39.241Z,8.85
2023-02-23T10:56:12.810Z,8.84
2023-02-23T10:58:47.714Z,8.74
2023-02-23T11:01:43.909Z,8.67
2023-02-23T11:04:26.241Z,8.62
2023-02-23T11:07:11.606Z,8.54
2023-02-23T11:09:47.582Z,8.44
2023-02-23T11:12:23.406Z,8.32
2023-02-23T11:14:57.715Z,8.15
2023-02-23T11:17:33.965Z,8.05
2023-02-23T11:20:21.109Z,8.04
2023-02-23T11:22:54.661Z,8.00
2023-02-23T11:25:33.089Z,7.96
2023-02-23T11:28:05.754Z,7.94
2023-02-23T11:30:43.013Z,7.93
2023-02-23T11:33:21.657Z,7.88
2023-02-23T11:36:02.691Z,7.87
2023-02-23T11:38:35.344Z,7.86
2023-02-23T11:41:22.040Z,7.84
2023-02-23T11:43:58.984Z,7.78
2023-02-23T11:46:33.892Z,7.78
2023-02-23T11:49:10.281Z,7.80
2023-02-23T11:51:47.667Z,7.79
2023-02-23T11:54:27.208Z,7.74
2023-02-23T11:57:02.866Z,7.68
2023-02-23T11:59:39.164Z,7.69
2023-02-23T12:02:25.807Z,7.71
2023-02-23T12:05:08.642Z,7.68
2023-02-23T12:07:43.212Z,7.69
2023-02-23T12:10:24.876Z,7.71
2023-02-23T12:13:07.544Z,7.68
2023-02-23T12:15:48.176Z,7.61
2023-02-23T12:18:45.241Z,7.63
2023-02-23T12:21:31.040Z,7.69
2023-02-23T12:24:14.663Z,7.75
2023-02-23T12:26:54.806Z,7.83
2023-02-23T12:29:33.216Z,7.78
2023-02-23T12:32:12.979Z,7.71
2023-02-23T12:34:53.196Z,7.70
2023-02-23T12:37:38.887Z,7.72
2023-02-23T12:40:23.916Z,7.72
2023-02-23T12:43:01.683Z,7.66
2023-02-23T12:45:42.185Z,7.59
2023-02-23T12:48:30.159Z,7.57
2023-02-23T12:51:07.795Z,7.53
2023-02-23T12:53:43.235Z,7.50
2023-02-23T12:56:35.789Z,7.44
2023-02-23T12:59:22.166Z,7.40
2023-02-23T13:01:55.684Z,7.32
2023-02-23T13:04:58.778Z,7.31
2023-02-23T13:07:42.046Z,7.30
2023-02-23T13:10:22.315Z,7.27
2023-02-23T13:13:05.557Z,7.24
2023-02-23T13:15:50.207Z,7.20
2023-02-23T13:18:29.838Z,7.16
2023-02-23T13:21:11.576Z,7.14
2023-02-23T13:23:55.291Z,7.10
2023-02-23T13:26:37.309Z,7.06
2023-02-23T13:29:18.941Z,7.00
2023-02-23T13:31:51.650Z,7.08
2023-02-23T13:34:29.995Z,7.13
2023-02-23T13:37:06.692Z,7.13
2023-02-23T13:40:08.335Z,7.09
2023-02-23T13:42:48.974Z,7.11
2023-02-23T13:45:50.062Z,7.14
2023-02-23T13:48:31.374Z,7.16
2023-02-23T13:51:08.552Z,7.20
2023-02-23T13:53:44.054Z,7.19
2023-02-23T13:56:20.891Z,7.11
2023-02-23T13:58:59.896Z,7.08
2023-02-23T14:01:37.774Z,7.12
2023-02-23T14:04:17.988Z,7.11
2023-02-23T14:07:02.108Z,7.08
2023-02-23T14:09:37.040Z,7.09
2023-02-23T14:12:19.576Z,7.08
2023-02-23T14:14:52.198Z,7.11
2023-02-23T14:17:44.383Z,7.13
2023-02-23T14:20:29.925Z,7.10
2023-02-23T14:23:34.712Z,7.05
2023-02-23T14:26:20.176Z,7.08
2023-02-23T14:29:21.694Z,7.07
2023-02-23T14:32:30.148Z,7.09
2023-02-23T14:35:03.887Z,7.11
2023-02-23T14:37:38.645Z,7.10
2023-02-23T14:40:15.986Z,7.14
2023-02-23T14:42:54.136Z,7.14
2023-02-23T14:45:29.006Z,7.16
2023-02-23T14:48:06.901Z,7.17
2023-02-23T14:50:41.464Z,7.12
2023-02-23T14:53:21.028Z,7.07
2023-02-23T14:55:53.315Z,7.01
2023-02-23T14:58:28.571Z,6.96
2023-02-23T15:01:00.868Z,6.93
2023-02-23T15:03:33.174Z,6.86
2023-02-23T15:06:06.654Z,6.85
2023-02-23T15:08:45.876Z,6.78
2023-02-23T15:11:20.055Z,6.81
2023-02-23T15:13:55.012Z,6.79
2023-02-23T15:16:34.451Z,6.80
2023-02-23T15:19:08.372Z,6.81
2023-02-23T15:21:40.807Z,6.80
2023-02-23T15:24:16.719Z,6.84
2023-02-23T15:26:49.741Z,6.87
2023-02-23T15:29:25.428Z,6.89
2023-02-23T15:32:12.977Z,6.90
2023-02-23T15:34:45.435Z,6.85
2023-02-23T15:37:25.987Z,6.79
2023-02-23T15:40:00.762Z,6.78
2023-02-23T15:42:37.919Z,6.82
2023-02-23T15:45:20.633Z,6.81
2023-02-23T15:47:56.734Z,6.82
2023-02-23T15:50:37.422Z,6.78
2023-02-23T15:53:19.863Z,6.71
2023-02-23T15:55:55.644Z,6.70
2023-02-23T15:58:31.936Z,6.71
2023-02-23T16:01:13.370Z,6.72
2023-02-23T16:03:58.978Z,6.70
2023-02-23T16:06:35.778Z,6.68
2023-02-23T16:09:25.523Z,6.68
2023-02-23T16:12:02.595Z,6.65
2023-02-23T16:14:45.097Z,6.64
2023-02-23T16:17:26.693Z,6.62
2023-02-23T16:20:18.975Z,6.59
2023-02-23T16:22:53.699Z,6.56
2023-02-23T16:25:28.982Z,6.55
2023-02-23T16:28:04.861Z,6.49
2023-02-23T16:30:44.157Z,6.44
2023-02-23T16:33:23.176Z,6.41
2023-02-23T16:36:14.348Z,6.31
2023-02-23T16:38:59.080Z,6.25
2023-02-23T16:41:33.898Z,6.18
2023-02-23T16:44:08.953Z,6.19
2023-02-23T16:47:01.691Z,6.20
2023-02-23T16:49:34.063Z,6.20
2023-02-23T16:52:15.500Z,6.22
2023-02-23T16:54:48.664Z,6.22
2023-02-23T16:57:25.701Z,6.21
2023-02-23T16:59:58.828Z,6.18
2023-02-23T17:02:31.268Z,6.16
2023-02-23T17:05:03.723Z,6.15
2023-02-23T17:07:36.757Z,6.15
2023-02-23T17:10:21.349Z,6.17
2023-02-23T17:12:55.609Z,6.18
2023-02-23T17:15:31.693Z,6.18
2023-02-23T17:18:04.176Z,6.12
2023-02-23T17:20:36.596Z,6.06
2023-02-23T17:23:09.515Z,6.06
2023-02-23T17:25:42.065Z,6.08
2023-02-23T17:28:14.663Z,6.06
2023-02-23T17:30:47.507Z,6.01
2023-02-23T17:33:19.902Z,5.99
2023-02-23T17:35:52.527Z,5.98
2023-02-23T17:38:29.598Z,5.99
2023-02-23T17:41:01.998Z,5.98
2023-02-23T17:43:35.156Z,5.93
2023-02-23T17:46:08.454Z,5.88
2023-02-23T17:48:44.819Z,5.84
2023-02-23T17:51:19.580Z,5.80
2023-02-23T17:53:52.222Z,5.79
2023-02-23T17:56:24.588Z,5.82
2023-02-23T17:58:56.902Z,5.84
2023-02-23T18:01:30.782Z,5.84
2023-02-23T18:04:03.609Z,5.77
2023-02-23T18:06:35.859Z,5.80
2023-02-23T18:09:08.446Z,5.77
2023-02-23T18:11:40.713Z,5.79
2023-02-23T18:14:14.546Z,5.78
2023-02-23T18:16:46.888Z,5.77
2023-02-23T18:19:19.322Z,5.75
2023-02-23T18:21:56.338Z,5.67
2023-02-23T18:24:31.836Z,5.71
2023-02-23T18:27:04.222Z,5.74
2023-02-23T18:29:38.255Z,5.77
2023-02-23T18:32:12.380Z,5.79
2023-02-23T18:34:44.878Z,5.78
2023-02-23T18:37:25.240Z,5.80
2023-02-23T18:39:59.501Z,5.82
2023-02-23T18:42:32.625Z,5.81
2023-02-23T18:45:05.364Z,5.80
2023-02-23T18:47:37.796Z,5.79
2023-02-23T18:50:12.914Z,5.78
2023-02-23T18:52:46.921Z,5.78
2023-02-23T18:55:19.673Z,5.80
2023-02-23T18:57:53.172Z,5.79
2023-02-23T19:00:26.409Z,5.81
2023-02-23T19:02:59.290Z,5.82
2023-02-23T19:05:33.535Z,5.85
2023-02-23T19:08:08.787Z,5.86
2023-02-23T19:10:41.421Z,5.84
2023-02-23T19:13:13.813Z,5.86
2023-02-23T19:15:48.423Z,5.85
2023-02-23T19:18:20.888Z,5.90
2023-02-23T19:20:55.590Z,5.90
2023-02-23T19:23:28.099Z,5.86
2023-02-23T19:26:02.627Z,5.85
2023-02-23T19:28:35.147Z,5.86
2023-02-23T19:31:10.166Z,5.88
2023-02-23T19:33:43.010Z,5.88
2023-02-23T19:36:24.453Z,5.89
2023-02-23T19:39:06.164Z,5.90
2023-02-23T19:41:40.525Z,5.90
2023-02-23T19:44:12.958Z,5.93
2023-02-23T19:46:45.473Z,5.97
2023-02-23T19:49:19.330Z,5.98
2023-02-23T19:51:53.120Z,6.00
2023-02-23T19:54:28.775Z,6.02
2023-02-23T19:57:03.168Z,6.02
2023-02-23T19:59:37.836Z,6.00
2023-02-23T20:02:11.274Z,5.98
2023-02-23T20:04:43.684Z,5.98
2023-02-23T20:07:16.008Z,5.93
2023-02-23T20:09:48.393Z,5.91
2023-02-23T20:12:20.770Z,5.90
2023-02-23T20:14:53.228Z,5.89
2023-02-23T20:17:25.546Z,5.89
2023-02-23T20:19:57.908Z,5.89
2023-02-23T20:22:32.656Z,5.89
2023-02-23T20:25:06.847Z,5.91
2023-02-23T20:27:39.859Z,5.94
2023-02-23T20:30:14.784Z,5.93
2023-02-23T20:32:47.493Z,5.90
2023-02-23T20:35:20.569Z,5.90
2023-02-23T20:37:53.172Z,5.93
2023-02-23T20:40:27.537Z,5.94
2023-02-23T20:42:59.927Z,5.98
2023-02-23T20:45:32.365Z,6.01
2023-02-23T20:48:04.874Z,6.01
2023-02-23T20:50:37.744Z,6.02
2023-02-23T20:53:10.146Z,6.00
2023-02-23T20:55:42.536Z,6.01
2023-02-23T20:58:26.340Z,6.03
2023-02-23T21:01:03.578Z,6.02
2023-02-23T21:03:36.498Z,6.00
2023-02-23T21:06:09.387Z,6.02
2023-02-23T21:08:42.280Z,6.00
2023-02-23T21:11:14.558Z,5.98
2023-02-23T21:13:47.552Z,5.98
2023-02-23T21:16:21.492Z,6.00
2023-02-23T21:19:04.321Z,5.98
2023-02-23T21:21:41.532Z,5.99
2023-02-23T21:24:16.223Z,6.00
2023-02-23T21:26:48.811Z,6.02
2023-02-23T21:29:23.928Z,5.99
2023-02-23T21:31:57.178Z,6.00
2023-02-23T21:34:29.592Z,5.96
2023-02-23T21:37:02.087Z,5.96
2023-02-23T21:39:34.518Z,5.97
2023-02-23T21:42:07.014Z,5.95
2023-02-23T21:44:39.362Z,5.96
2023-02-23T21:47:11.647Z,5.96
2023-02-23T21:49:49.253Z,5.95
2023-02-23T21:52:21.864Z,5.96
2023-02-23T21:54:54.699Z,5.96
2023-02-23T21:57:28.392Z,5.94
2023-02-23T22:00:00.786Z,5.99
2023-02-23T22:02:38.509Z,6.01
2023-02-23T22:05:12.144Z,5.97
2023-02-23T22:07:48.569Z,5.93
2023-02-23T22:10:22.799Z,5.91
2023-02-23T22:12:56.923Z,5.88
2023-02-23T22:15:29.742Z,5.85
2023-02-23T22:18:02.122Z,5.84
2023-02-23T22:20:37.059Z,5.84
2023-02-23T22:23:09.612Z,5.85
2023-02-23T22:25:42.002Z,5.86
2023-02-23T22:28:14.454Z,5.88
2023-02-23T22:30:50.979Z,5.89
2023-02-23T22:33:23.688Z,5.88
2023-02-23T22:35:57.256Z,5.86
2023-02-23T22:38:30.656Z,5.79
2023-02-23T22:41:05.132Z,5.81
2023-02-23T22:43:37.637Z,5.79
2023-02-23T22:46:11.109Z,5.80
2023-02-23T22:48:45.673Z,5.80
2023-02-23T22:51:20.854Z,5.77
2023-02-23T22:53:53.494Z,5.80
2023-02-23T22:56:26.944Z,5.81
2023-02-23T22:59:05.054Z,5.81
2023-02-23T23:01:38.927Z,5.82
2023-02-23T23:04:11.349Z,5.83
2023-02-23T23:06:46.370Z,5.85
2023-02-23T23:09:21.144Z,5.83
2023-02-23T23:11:54.191Z,5.83
2023-02-23T23:14:26.705Z,5.84
2023-02-23T23:16:59.884Z,5.85
2023-02-23T23:19:39.123Z,5.83
2023-02-23T23:22:14.577Z,5.83
2023-02-23T23:24:49.182Z,5.83
2023-02-23T23:27:22.441Z,5.81
2023-02-23T23:29:55.635Z,5.83
2023-02-23T23:32:30.138Z,5.82
2023-02-23T23:35:02.462Z,5.81
2023-02-23T23:37:34.842Z,5.83
2023-02-23T23:40:14.386Z,5.83
2023-02-23T23:42:48.246Z,5.84
2023-02-23T23:45:24.442Z,5.84
2023-02-23T23:47:56.829Z,5.85
2023-02-23T23:50:29.361Z,5.87
2023-02-23T23:53:01.674Z,5.88
2023-02-23T23:55:34.050Z,5.90
2023-02-23T23:58:07.097Z,5.92
